sensor_id;sensor_type;location;lat;lon;timestamp;pressure;altitude;pressure_sealevel;temperature;humidity
36664;BME280;53333;51.976;20.144;2023-03-13T00:00:21;99601.47;;;3.84;53.16
36664;BME280;53333;51.976;20.144;2023-03-13T00:02:54;99601.47;;;3.84;53.26
36664;BME280;53333;51.976;20.144;2023-03-13T00:05:27;99593.25;;;3.93;53.06
36664;BME280;53333;51.976;20.144;2023-03-13T00:08:02;99593.59;;;3.82;53.25
36664;BME280;53333;51.976;20.144;2023-03-13T00:10:35;99592.81;;;3.78;53.28
36664;BME280;53333;51.976;20.144;2023-03-13T00:13:08;99598.16;;;3.77;53.19
36664;BME280;53333;51.976;20.144;2023-03-13T00:15:42;99592.88;;;3.77;53.30
36664;BME280;53333;51.976;20.144;2023-03-13T00:18:15;99594.66;;;3.75;53.36
36664;BME280;53333;51.976;20.144;2023-03-13T00:20:48;99587.66;;;3.74;53.57
36664;BME280;53333;51.976;20.144;2023-03-13T00:23:22;99590.34;;;3.72;53.46
36664;BME280;53333;51.976;20.144;2023-03-13T00:25:56;99593.84;;;3.73;53.56
36664;BME280;53333;51.976;20.144;2023-03-13T00:28:31;99593.84;;;3.73;53.71
36664;BME280;53333;51.976;20.144;2023-03-13T00:31:06;99591.16;;;3.74;53.61
36664;BME280;53333;51.976;20.144;2023-03-13T00:33:41;99592.94;;;3.74;53.37
36664;BME280;53333;51.976;20.144;2023-03-13T00:36:15;99595.59;;;3.74;53.45
36664;BME280;53333;51.976;20.144;2023-03-13T00:38:51;99601.72;;;3.74;53.62
36664;BME280;53333;51.976;20.144;2023-03-13T00:41:25;99594.72;;;3.73;53.63
36664;BME280;53333;51.976;20.144;2023-03-13T00:43:59;99584.19;;;3.72;53.79
36664;BME280;53333;51.976;20.144;2023-03-13T00:46:35;99577.28;;;3.68;54.02
36664;BME280;53333;51.976;20.144;2023-03-13T00:49:08;99572.94;;;3.65;54.06
36664;BME280;53333;51.976;20.144;2023-03-13T00:51:41;99570.38;;;3.62;54.51
36664;BME280;53333;51.976;20.144;2023-03-13T00:54:15;99561.69;;;3.58;54.72
36664;BME280;53333;51.976;20.144;2023-03-13T00:56:48;99560.06;;;3.54;54.95
36664;BME280;53333;51.976;20.144;2023-03-13T00:59:21;99568.97;;;3.50;55.20
36664;BME280;53333;51.976;20.144;2023-03-13T01:01:54;99562.00;;;3.48;55.24
36664;BME280;53333;51.976;20.144;2023-03-13T01:04:27;99568.22;;;3.47;55.33
36664;BME280;53333;51.976;20.144;2023-03-13T01:07:00;99563.88;;;3.44;55.48
36664;BME280;53333;51.976;20.144;2023-03-13T01:09:34;99556.84;;;3.43;55.67
36664;BME280;53333;51.976;20.144;2023-03-13T01:12:08;99563.09;;;3.40;55.79
36664;BME280;53333;51.976;20.144;2023-03-13T01:14:41;99547.31;;;3.39;56.05
36664;BME280;53333;51.976;20.144;2023-03-13T01:17:14;99551.81;;;3.35;56.38
36664;BME280;53333;51.976;20.144;2023-03-13T01:19:47;99544.84;;;3.33;56.52
36664;BME280;53333;51.976;20.144;2023-03-13T01:22:20;99533.50;;;3.29;56.78
36664;BME280;53333;51.976;20.144;2023-03-13T01:24:55;99530.06;;;3.25;57.21
36664;BME280;53333;51.976;20.144;2023-03-13T01:27:28;99535.44;;;3.24;57.39
36664;BME280;53333;51.976;20.144;2023-03-13T01:30:01;99531.09;;;3.21;57.57
36664;BME280;53333;51.976;20.144;2023-03-13T01:32:34;99529.38;;;3.19;57.56
36664;BME280;53333;51.976;20.144;2023-03-13T01:35:08;99538.28;;;3.16;57.92
36664;BME280;53333;51.976;20.144;2023-03-13T01:37:41;99533.81;;;3.18;57.91
36664;BME280;53333;51.976;20.144;2023-03-13T01:40:16;99532.13;;;3.16;58.30
36664;BME280;53333;51.976;20.144;2023-03-13T01:42:50;99526.78;;;3.17;58.31
36664;BME280;53333;51.976;20.144;2023-03-13T01:45:53;99525.84;;;3.20;58.17
36664;BME280;53333;51.976;20.144;2023-03-13T01:48:35;99525.03;;;3.18;58.33
36664;BME280;53333;51.976;20.144;2023-03-13T01:51:13;99521.56;;;3.16;58.52
36664;BME280;53333;51.976;20.144;2023-03-13T01:53:49;99518.97;;;3.14;58.61
36664;BME280;53333;51.976;20.144;2023-03-13T01:56:30;99514.69;;;3.10;58.86
36664;BME280;53333;51.976;20.144;2023-03-13T01:59:08;99520.13;;;3.04;58.93
36664;BME280;53333;51.976;20.144;2023-03-13T02:01:45;99515.81;;;3.01;59.16
36664;BME280;53333;51.976;20.144;2023-03-13T02:04:19;99509.72;;;2.99;59.26
36664;BME280;53333;51.976;20.144;2023-03-13T02:06:56;99508.84;;;2.99;59.49
36664;BME280;53333;51.976;20.144;2023-03-13T02:09:33;99500.94;;;2.99;59.50
36664;BME280;53333;51.976;20.144;2023-03-13T02:12:11;99509.66;;;3.01;59.70
36664;BME280;53333;51.976;20.144;2023-03-13T02:14:48;99509.59;;;3.04;59.75
36664;BME280;53333;51.976;20.144;2023-03-13T02:17:23;99506.00;;;3.06;59.77
36664;BME280;53333;51.976;20.144;2023-03-13T02:19:57;99510.41;;;3.06;59.97
36664;BME280;53333;51.976;20.144;2023-03-13T02:22:33;99513.03;;;3.06;60.12
36664;BME280;53333;51.976;20.144;2023-03-13T02:25:16;99511.28;;;3.06;60.11
36664;BME280;53333;51.976;20.144;2023-03-13T02:27:57;99513.84;;;3.09;60.31
36664;BME280;53333;51.976;20.144;2023-03-13T02:30:37;99512.94;;;3.09;60.15
36664;BME280;53333;51.976;20.144;2023-03-13T02:33:11;99509.50;;;3.07;60.40
36664;BME280;53333;51.976;20.144;2023-03-13T02:35:46;99512.91;;;3.11;60.35
36664;BME280;53333;51.976;20.144;2023-03-13T02:38:24;99505.91;;;3.09;60.95
36664;BME280;53333;51.976;20.144;2023-03-13T02:40:59;99509.38;;;3.12;60.88
36664;BME280;53333;51.976;20.144;2023-03-13T02:43:36;99518.09;;;3.14;60.92
36664;BME280;53333;51.976;20.144;2023-03-13T02:46:12;99510.19;;;3.14;61.23
36664;BME280;53333;51.976;20.144;2023-03-13T02:48:50;99507.50;;;3.15;61.35
36664;BME280;53333;51.976;20.144;2023-03-13T02:51:29;99508.44;;;3.13;61.76
36664;BME280;53333;51.976;20.144;2023-03-13T02:54:07;99510.19;;;3.14;61.74
36664;BME280;53333;51.976;20.144;2023-03-13T02:56:45;99513.63;;;3.16;62.10
36664;BME280;53333;51.976;20.144;2023-03-13T02:59:21;99520.63;;;3.18;62.15
36664;BME280;53333;51.976;20.144;2023-03-13T03:01:54;99517.97;;;3.18;62.30
36664;BME280;53333;51.976;20.144;2023-03-13T03:04:27;99515.28;;;3.20;62.36
36664;BME280;53333;51.976;20.144;2023-03-13T03:07:00;99521.44;;;3.20;62.70
36664;BME280;53333;51.976;20.144;2023-03-13T03:09:33;99525.81;;;3.21;62.80
36664;BME280;53333;51.976;20.144;2023-03-13T03:12:11;99523.13;;;3.23;63.12
36664;BME280;53333;51.976;20.144;2023-03-13T03:14:46;99517.81;;;3.24;63.31
36664;BME280;53333;51.976;20.144;2023-03-13T03:17:20;99517.81;;;3.24;63.54
36664;BME280;53333;51.976;20.144;2023-03-13T03:19:53;99510.78;;;3.23;63.62
36664;BME280;53333;51.976;20.144;2023-03-13T03:22:26;99506.53;;;3.19;63.91
36664;BME280;53333;51.976;20.144;2023-03-13T03:24:59;99515.38;;;3.17;63.97
36664;BME280;53333;51.976;20.144;2023-03-13T03:27:34;99515.47;;;3.14;64.43
36664;BME280;53333;51.976;20.144;2023-03-13T03:30:13;99508.50;;;3.11;64.74
36664;BME280;53333;51.976;20.144;2023-03-13T03:32:46;99499.63;;;3.14;64.78
36664;BME280;53333;51.976;20.144;2023-03-13T03:35:19;99511.97;;;3.13;64.92
36664;BME280;53333;51.976;20.144;2023-03-13T03:37:52;99511.09;;;3.13;65.02
36664;BME280;53333;51.976;20.144;2023-03-13T03:40:25;99508.44;;;3.13;65.19
36664;BME280;53333;51.976;20.144;2023-03-13T03:42:59;99504.91;;;3.14;65.16
36664;BME280;53333;51.976;20.144;2023-03-13T03:45:33;99503.16;;;3.13;65.46
36664;BME280;53333;51.976;20.144;2023-03-13T03:48:06;99495.19;;;3.14;65.52
36664;BME280;53333;51.976;20.144;2023-03-13T03:50:39;99499.59;;;3.15;65.60
36664;BME280;53333;51.976;20.144;2023-03-13T03:53:13;99490.78;;;3.16;65.48
36664;BME280;53333;51.976;20.144;2023-03-13T03:55:46;99498.59;;;3.19;65.62
36664;BME280;53333;51.976;20.144;2023-03-13T03:58:19;99494.19;;;3.20;65.61
36664;BME280;53333;51.976;20.144;2023-03-13T04:01:05;99473.88;;;3.22;65.78
36664;BME280;53333;51.976;20.144;2023-03-13T04:03:38;99483.63;;;3.20;65.81
36664;BME280;53333;51.976;20.144;2023-03-13T04:06:11;99482.72;;;3.21;65.91
36664;BME280;53333;51.976;20.144;2023-03-13T04:08:47;99478.28;;;3.21;66.06
36664;BME280;53333;51.976;20.144;2023-03-13T04:11:23;99469.53;;;3.21;66.25
36664;BME280;53333;51.976;20.144;2023-03-13T04:13:58;99469.59;;;3.18;66.35
36664;BME280;53333;51.976;20.144;2023-03-13T04:16:33;99471.44;;;3.14;66.53
36664;BME280;53333;51.976;20.144;2023-03-13T04:19:06;99467.06;;;3.15;66.59
36664;BME280;53333;51.976;20.144;2023-03-13T04:21:41;99470.50;;;3.17;66.75
36664;BME280;53333;51.976;20.144;2023-03-13T04:24:20;99466.03;;;3.19;66.79
36664;BME280;53333;51.976;20.144;2023-03-13T04:27:03;99446.66;;;3.20;66.73
36664;BME280;53333;51.976;20.144;2023-03-13T04:29:37;99447.53;;;3.20;66.79
36664;BME280;53333;51.976;20.144;2023-03-13T04:32:25;99450.06;;;3.23;66.80
36664;BME280;53333;51.976;20.144;2023-03-13T04:35:21;99441.19;;;3.26;66.70
36664;BME280;53333;51.976;20.144;2023-03-13T04:38:27;99455.22;;;3.28;66.81
36664;BME280;53333;51.976;20.144;2023-03-13T04:41:26;99440.09;;;3.33;66.73
36664;BME280;53333;51.976;20.144;2023-03-13T04:44:31;99438.19;;;3.38;66.85
36664;BME280;53333;51.976;20.144;2023-03-13T04:47:17;99431.13;;;3.39;66.79
36664;BME280;53333;51.976;20.144;2023-03-13T04:50:27;99438.91;;;3.43;66.86
36664;BME280;53333;51.976;20.144;2023-03-13T04:53:26;99441.47;;;3.47;66.84
36664;BME280;53333;51.976;20.144;2023-03-13T04:56:25;99431.75;;;3.47;67.06
36664;BME280;53333;51.976;20.144;2023-03-13T04:59:31;99446.66;;;3.50;66.94
36664;BME280;53333;51.976;20.144;2023-03-13T05:02:22;99440.34;;;3.54;67.16
36664;BME280;53333;51.976;20.144;2023-03-13T05:05:21;99445.50;;;3.58;66.89
36664;BME280;53333;51.976;20.144;2023-03-13T05:08:14;99437.50;;;3.60;67.03
36664;BME280;53333;51.976;20.144;2023-03-13T05:10:57;99444.41;;;3.66;67.16
36664;BME280;53333;51.976;20.144;2023-03-13T05:13:49;99449.63;;;3.67;67.20
36664;BME280;53333;51.976;20.144;2023-03-13T05:16:51;99434.53;;;3.71;66.96
36664;BME280;53333;51.976;20.144;2023-03-13T05:19:53;99427.41;;;3.73;67.21
36664;BME280;53333;51.976;20.144;2023-03-13T05:23:01;99434.41;;;3.75;67.10
36664;BME280;53333;51.976;20.144;2023-03-13T05:25:54;99430.72;;;3.79;67.17
36664;BME280;53333;51.976;20.144;2023-03-13T05:28:45;99426.22;;;3.83;67.22
36664;BME280;53333;51.976;20.144;2023-03-13T05:31:26;99427.94;;;3.84;67.40
36664;BME280;53333;51.976;20.144;2023-03-13T05:34:18;99416.31;;;3.90;67.12
36664;BME280;53333;51.976;20.144;2023-03-13T05:37:10;99417.00;;;3.95;67.18
36664;BME280;53333;51.976;20.144;2023-03-13T05:40:04;99407.97;;;4.02;67.14
36664;BME280;53333;51.976;20.144;2023-03-13T05:42:48;99414.81;;;4.08;67.23
36664;BME280;53333;51.976;20.144;2023-03-13T05:45:44;99408.47;;;4.13;67.17
36664;BME280;53333;51.976;20.144;2023-03-13T05:48:40;99406.53;;;4.18;67.01
36664;BME280;53333;51.976;20.144;2023-03-13T05:51:39;99403.69;;;4.25;66.88
36664;BME280;53333;51.976;20.144;2023-03-13T05:54:34;99411.34;;;4.32;66.95
36664;BME280;53333;51.976;20.144;2023-03-13T05:57:16;99409.28;;;4.41;67.16
36664;BME280;53333;51.976;20.144;2023-03-13T06:00:01;99403.84;;;4.45;67.01
36664;BME280;53333;51.976;20.144;2023-03-13T06:03:00;99408.88;;;4.51;66.97
36664;BME280;53333;51.976;20.144;2023-03-13T06:05:39;99407.94;;;4.54;67.03
36664;BME280;53333;51.976;20.144;2023-03-13T06:08:26;99409.44;;;4.61;67.13
36664;BME280;53333;51.976;20.144;2023-03-13T06:11:00;99405.66;;;4.68;66.99
36664;BME280;53333;51.976;20.144;2023-03-13T06:13:34;99400.06;;;4.76;66.95
36664;BME280;53333;51.976;20.144;2023-03-13T06:16:27;99390.19;;;4.81;67.23
36664;BME280;53333;51.976;20.144;2023-03-13T06:19:15;99404.03;;;4.88;67.20
36664;BME280;53333;51.976;20.144;2023-03-13T06:21:48;99389.72;;;4.94;67.16
36664;BME280;53333;51.976;20.144;2023-03-13T06:24:21;99375.44;;;4.98;67.22
36664;BME280;53333;51.976;20.144;2023-03-13T06:26:54;99377.84;;;5.04;67.33
36664;BME280;53333;51.976;20.144;2023-03-13T06:29:27;99383.03;;;5.07;67.44
36664;BME280;53333;51.976;20.144;2023-03-13T06:32:02;99368.78;;;5.11;67.38
36664;BME280;53333;51.976;20.144;2023-03-13T06:34:36;99375.59;;;5.17;67.62
36664;BME280;53333;51.976;20.144;2023-03-13T06:37:09;99370.81;;;5.26;67.39
36664;BME280;53333;51.976;20.144;2023-03-13T06:39:42;99376.44;;;5.41;67.32
36664;BME280;53333;51.976;20.144;2023-03-13T06:42:15;99375.84;;;5.55;67.18
36664;BME280;53333;51.976;20.144;2023-03-13T06:44:48;99383.31;;;5.67;67.14
36664;BME280;53333;51.976;20.144;2023-03-13T06:47:22;99369.56;;;5.79;66.68
36664;BME280;53333;51.976;20.144;2023-03-13T06:49:55;99371.75;;;5.90;66.84
36664;BME280;53333;51.976;20.144;2023-03-13T06:52:28;99372.28;;;6.00;66.61
36664;BME280;53333;51.976;20.144;2023-03-13T06:55:14;99372.81;;;6.08;66.64
36664;BME280;53333;51.976;20.144;2023-03-13T06:57:49;99376.91;;;6.15;66.59
36664;BME280;53333;51.976;20.144;2023-03-13T07:00:23;99369.41;;;6.25;66.56
36664;BME280;53333;51.976;20.144;2023-03-13T07:02:57;99365.91;;;6.45;65.72
36664;BME280;53333;51.976;20.144;2023-03-13T07:05:33;99364.16;;;6.44;65.83
36664;BME280;53333;51.976;20.144;2023-03-13T07:08:06;99358.53;;;6.52;65.73
36664;BME280;53333;51.976;20.144;2023-03-13T07:10:41;99358.19;;;6.60;65.68
36664;BME280;53333;51.976;20.144;2023-03-13T07:13:14;99352.47;;;6.69;65.63
36664;BME280;53333;51.976;20.144;2023-03-13T07:15:52;99350.13;;;6.82;65.61
36664;BME280;53333;51.976;20.144;2023-03-13T07:18:26;99346.00;;;6.94;65.33
36664;BME280;53333;51.976;20.144;2023-03-13T07:21:01;99348.16;;;7.04;65.27
36664;BME280;53333;51.976;20.144;2023-03-13T07:23:35;99345.94;;;7.14;65.06
36664;BME280;53333;51.976;20.144;2023-03-13T07:26:11;99335.72;;;7.24;64.95
36664;BME280;53333;51.976;20.144;2023-03-13T07:28:44;99335.94;;;7.38;64.73
36664;BME280;53333;51.976;20.144;2023-03-13T07:31:19;99340.50;;;7.54;64.46
36664;BME280;53333;51.976;20.144;2023-03-13T07:33:55;99343.97;;;7.73;64.22
36664;BME280;53333;51.976;20.144;2023-03-13T07:36:28;99335.84;;;7.94;64.00
36664;BME280;53333;51.976;20.144;2023-03-13T07:39:02;99335.53;;;8.17;63.49
36664;BME280;53333;51.976;20.144;2023-03-13T07:41:35;99325.78;;;8.34;63.14
36664;BME280;53333;51.976;20.144;2023-03-13T07:44:10;99328.63;;;8.48;63.03
36664;BME280;53333;51.976;20.144;2023-03-13T07:46:43;99320.50;;;8.67;62.62
36664;BME280;53333;51.976;20.144;2023-03-13T07:49:18;99321.22;;;9.03;62.05
36664;BME280;53333;51.976;20.144;2023-03-13T07:51:51;99326.91;;;9.44;61.41
36664;BME280;53333;51.976;20.144;2023-03-13T07:54:24;99319.97;;;9.72;60.79
36664;BME280;53333;51.976;20.144;2023-03-13T07:56:57;99327.41;;;9.97;60.17
36664;BME280;53333;51.976;20.144;2023-03-13T07:59:30;99327.69;;;10.07;59.77
36664;BME280;53333;51.976;20.144;2023-03-13T08:02:03;99324.94;;;10.09;59.55
36664;BME280;53333;51.976;20.144;2023-03-13T08:04:38;99325.78;;;10.09;59.58
36664;BME280;53333;51.976;20.144;2023-03-13T08:07:11;99330.00;;;10.13;59.43
36664;BME280;53333;51.976;20.144;2023-03-13T08:09:47;99328.72;;;10.05;59.44
36664;BME280;53333;51.976;20.144;2023-03-13T08:12:20;99316.22;;;9.91;59.59
36664;BME280;53333;51.976;20.144;2023-03-13T08:14:53;99315.78;;;9.82;59.79
36664;BME280;53333;51.976;20.144;2023-03-13T08:17:28;99313.69;;;9.73;59.87
36664;BME280;53333;51.976;20.144;2023-03-13T08:20:03;99311.75;;;9.61;60.10
36664;BME280;53333;51.976;20.144;2023-03-13T08:22:38;99304.28;;;9.52;60.33
36664;BME280;53333;51.976;20.144;2023-03-13T08:25:12;99312.53;;;9.47;60.61
36664;BME280;53333;51.976;20.144;2023-03-13T08:27:45;99305.38;;;9.48;60.61
36664;BME280;53333;51.976;20.144;2023-03-13T08:30:18;99301.59;;;9.52;60.65
36664;BME280;53333;51.976;20.144;2023-03-13T08:32:51;99291.69;;;9.54;60.66
36664;BME280;53333;51.976;20.144;2023-03-13T08:35:27;99301.34;;;9.56;60.67
36664;BME280;53333;51.976;20.144;2023-03-13T08:38:00;99306.75;;;9.55;60.41
36664;BME280;53333;51.976;20.144;2023-03-13T08:40:34;99303.16;;;9.56;60.56
36664;BME280;53333;51.976;20.144;2023-03-13T08:43:07;99288.16;;;9.69;60.45
36664;BME280;53333;51.976;20.144;2023-03-13T08:45:40;99288.84;;;9.87;60.15
36664;BME280;53333;51.976;20.144;2023-03-13T08:48:13;99276.81;;;10.10;59.86
36664;BME280;53333;51.976;20.144;2023-03-13T08:50:59;99266.91;;;10.27;59.47
36664;BME280;53333;51.976;20.144;2023-03-13T08:53:33;99268.59;;;10.44;59.21
36664;BME280;53333;51.976;20.144;2023-03-13T08:56:08;99258.44;;;10.63;58.95
36664;BME280;53333;51.976;20.144;2023-03-13T08:58:41;99262.34;;;10.72;58.57
36664;BME280;53333;51.976;20.144;2023-03-13T09:01:14;99260.25;;;10.77;58.59
36664;BME280;53333;51.976;20.144;2023-03-13T09:03:47;99251.47;;;10.75;58.47
36664;BME280;53333;51.976;20.144;2023-03-13T09:06:22;99258.63;;;10.75;58.59
36664;BME280;53333;51.976;20.144;2023-03-13T09:08:56;99246.03;;;10.77;58.29
36664;BME280;53333;51.976;20.144;2023-03-13T09:11:29;99244.97;;;10.79;58.49
36664;BME280;53333;51.976;20.144;2023-03-13T09:14:03;99252.69;;;10.84;58.33
36664;BME280;53333;51.976;20.144;2023-03-13T09:16:36;99244.28;;;10.90;58.16
36664;BME280;53333;51.976;20.144;2023-03-13T09:19:09;99234.16;;;10.95;58.07
36664;BME280;53333;51.976;20.144;2023-03-13T09:21:44;99241.97;;;10.98;58.21
36664;BME280;53333;51.976;20.144;2023-03-13T09:24:17;99229.56;;;10.97;58.03
36664;BME280;53333;51.976;20.144;2023-03-13T09:26:50;99219.28;;;10.91;57.96
36664;BME280;53333;51.976;20.144;2023-03-13T09:29:32;99225.16;;;10.83;58.04
36664;BME280;53333;51.976;20.144;2023-03-13T09:32:09;99215.69;;;10.78;58.16
36664;BME280;53333;51.976;20.144;2023-03-13T09:34:42;99223.06;;;10.74;58.37
36664;BME280;53333;51.976;20.144;2023-03-13T09:37:17;99230.38;;;10.70;58.36
36664;BME280;53333;51.976;20.144;2023-03-13T09:39:50;99222.59;;;10.67;58.47
36664;BME280;53333;51.976;20.144;2023-03-13T09:42:30;99225.94;;;10.71;58.39
36664;BME280;53333;51.976;20.144;2023-03-13T09:45:06;99217.81;;;10.72;58.34
36664;BME280;53333;51.976;20.144;2023-03-13T09:47:44;99220.38;;;10.74;58.31
36664;BME280;53333;51.976;20.144;2023-03-13T09:50:23;99213.13;;;10.76;58.23
36664;BME280;53333;51.976;20.144;2023-03-13T09:53:03;99207.50;;;10.81;58.27
36664;BME280;53333;51.976;20.144;2023-03-13T09:55:38;99204.13;;;10.92;58.21
36664;BME280;53333;51.976;20.144;2023-03-13T09:58:16;99204.94;;;11.06;57.86
36664;BME280;53333;51.976;20.144;2023-03-13T10:00:53;99207.53;;;11.21;57.55
36664;BME280;53333;51.976;20.144;2023-03-13T10:03:31;99195.16;;;11.33;57.20
36664;BME280;53333;51.976;20.144;2023-03-13T10:06:14;99182.38;;;11.38;57.21
36664;BME280;53333;51.976;20.144;2023-03-13T10:08:51;99190.19;;;11.41;56.95
36664;BME280;53333;51.976;20.144;2023-03-13T10:11:26;99187.19;;;11.45;56.92
36664;BME280;53333;51.976;20.144;2023-03-13T10:14:03;99176.53;;;11.58;56.54
36664;BME280;53333;51.976;20.144;2023-03-13T10:16:41;99170.63;;;11.79;56.36
36664;BME280;53333;51.976;20.144;2023-03-13T10:19:18;99171.94;;;12.12;55.65
36664;BME280;53333;51.976;20.144;2023-03-13T10:21:54;99170.78;;;12.66;54.85
36664;BME280;53333;51.976;20.144;2023-03-13T10:24:32;99167.13;;;13.39;53.51
36664;BME280;53333;51.976;20.144;2023-03-13T10:27:08;99169.22;;;14.16;52.33
36664;BME280;53333;51.976;20.144;2023-03-13T10:29:43;99167.03;;;14.56;50.86
36664;BME280;53333;51.976;20.144;2023-03-13T10:32:17;99163.75;;;14.63;50.39
36664;BME280;53333;51.976;20.144;2023-03-13T10:34:54;99154.03;;;14.83;49.55
36664;BME280;53333;51.976;20.144;2023-03-13T10:37:29;99149.78;;;15.13;48.71
36664;BME280;53333;51.976;20.144;2023-03-13T10:40:20;99148.00;;;15.56;48.09
36664;BME280;53333;51.976;20.144;2023-03-13T10:43:01;99132.38;;;16.23;46.98
36664;BME280;53333;51.976;20.144;2023-03-13T10:45:36;99108.13;;;16.83;45.47
36664;BME280;53333;51.976;20.144;2023-03-13T10:48:12;99117.25;;;17.31;44.64
36664;BME280;53333;51.976;20.144;2023-03-13T10:50:48;99109.53;;;17.65;43.80
36664;BME280;53333;51.976;20.144;2023-03-13T10:53:24;99097.34;;;17.51;43.83
36664;BME280;53333;51.976;20.144;2023-03-13T10:56:04;99114.97;;;17.26;43.70
36664;BME280;53333;51.976;20.144;2023-03-13T10:58:43;99097.50;;;16.91;44.28
36664;BME280;53333;51.976;20.144;2023-03-13T11:01:22;99089.78;;;16.57;44.65
36664;BME280;53333;51.976;20.144;2023-03-13T11:03:57;99087.16;;;16.26;45.02
36664;BME280;53333;51.976;20.144;2023-03-13T11:06:32;99085.50;;;15.94;45.54
36664;BME280;53333;51.976;20.144;2023-03-13T11:09:11;99073.66;;;15.86;45.66
36664;BME280;53333;51.976;20.144;2023-03-13T11:11:48;99071.81;;;15.76;45.72
36664;BME280;53333;51.976;20.144;2023-03-13T11:14:22;99063.53;;;15.47;45.92
36664;BME280;53333;51.976;20.144;2023-03-13T11:17:00;99072.31;;;15.07;46.37
36664;BME280;53333;51.976;20.144;2023-03-13T11:19:48;99063.69;;;14.71;47.06
36664;BME280;53333;51.976;20.144;2023-03-13T11:22:33;99044.34;;;14.33;47.53
36664;BME280;53333;51.976;20.144;2023-03-13T11:25:18;99037.41;;;14.08;48.03
36664;BME280;53333;51.976;20.144;2023-03-13T11:28:07;99036.25;;;13.90;48.42
36664;BME280;53333;51.976;20.144;2023-03-13T11:30:52;99032.31;;;13.71;48.68
36664;BME280;53333;51.976;20.144;2023-03-13T11:33:37;99030.72;;;13.57;49.03
36664;BME280;53333;51.976;20.144;2023-03-13T11:36:16;99034.41;;;13.45;49.23
36664;BME280;53333;51.976;20.144;2023-03-13T11:38:53;99015.59;;;13.34;49.34
36664;BME280;53333;51.976;20.144;2023-03-13T11:41:43;99011.53;;;13.28;49.34
36664;BME280;53333;51.976;20.144;2023-03-13T11:44:29;98999.22;;;13.25;49.58
36664;BME280;53333;51.976;20.144;2023-03-13T11:47:12;99000.69;;;13.30;49.44
36664;BME280;53333;51.976;20.144;2023-03-13T11:50:12;99005.69;;;13.23;49.80
36664;BME280;53333;51.976;20.144;2023-03-13T11:52:57;98997.41;;;13.15;49.88
36664;BME280;53333;51.976;20.144;2023-03-13T11:55:52;98997.63;;;13.12;49.99
36664;BME280;53333;51.976;20.144;2023-03-13T11:58:39;98995.41;;;13.05;50.41
36664;BME280;53333;51.976;20.144;2023-03-13T12:01:16;98995.78;;;13.01;50.43
36664;BME280;53333;51.976;20.144;2023-03-13T12:03:55;98996.00;;;12.98;50.67
36664;BME280;53333;51.976;20.144;2023-03-13T12:06:31;98986.47;;;12.94;50.86
36664;BME280;53333;51.976;20.144;2023-03-13T12:09:09;98998.31;;;12.91;51.26
36664;BME280;53333;51.976;20.144;2023-03-13T12:11:54;99000.00;;;12.92;51.70
36664;BME280;53333;51.976;20.144;2023-03-13T12:14:36;98984.16;;;12.89;51.97
36664;BME280;53333;51.976;20.144;2023-03-13T12:17:20;98991.59;;;12.85;52.23
36664;BME280;53333;51.976;20.144;2023-03-13T12:19:57;98977.81;;;12.79;52.75
36664;BME280;53333;51.976;20.144;2023-03-13T12:22:35;98984.34;;;12.75;53.32
36664;BME280;53333;51.976;20.144;2023-03-13T12:25:15;98988.25;;;12.70;53.65
36664;BME280;53333;51.976;20.144;2023-03-13T12:27:51;98963.78;;;12.64;54.25
36664;BME280;53333;51.976;20.144;2023-03-13T12:30:32;98963.13;;;12.60;54.55
36664;BME280;53333;51.976;20.144;2023-03-13T12:33:16;98964.56;;;12.53;54.77
36664;BME280;53333;51.976;20.144;2023-03-13T12:36:01;98969.56;;;12.46;55.11
36664;BME280;53333;51.976;20.144;2023-03-13T12:38:39;98963.91;;;12.38;55.73
36664;BME280;53333;51.976;20.144;2023-03-13T12:41:21;98954.50;;;12.32;55.92
36664;BME280;53333;51.976;20.144;2023-03-13T12:43:56;98952.28;;;12.26;56.51
36664;BME280;53333;51.976;20.144;2023-03-13T12:46:42;98949.09;;;12.21;56.64
36664;BME280;53333;51.976;20.144;2023-03-13T12:55:39;98933.50;;;12.15;57.39
36664;BME280;53333;51.976;20.144;2023-03-13T12:58:28;98942.81;;;12.09;57.80
36664;BME280;53333;51.976;20.144;2023-03-13T13:01:04;98936.84;;;12.06;58.00
36664;BME280;53333;51.976;20.144;2023-03-13T13:03:47;98935.16;;;12.05;58.42
36664;BME280;53333;51.976;20.144;2023-03-13T13:06:23;98930.88;;;12.02;58.57
36664;BME280;53333;51.976;20.144;2023-03-13T13:09:06;98931.84;;;12.01;58.96
36664;BME280;53333;51.976;20.144;2023-03-13T13:11:45;98927.81;;;11.95;59.21
36664;BME280;53333;51.976;20.144;2023-03-13T13:14:56;98918.91;;;11.95;59.14
36664;BME280;53333;51.976;20.144;2023-03-13T13:20:40;98898.63;;;11.79;60.21
36664;BME280;53333;51.976;20.144;2023-03-13T13:23:32;98898.50;;;11.81;60.32
36664;BME280;53333;51.976;20.144;2023-03-13T13:32:36;98890.44;;;11.70;60.78
36664;BME280;53333;51.976;20.144;2023-03-13T13:35:27;98887.53;;;11.73;61.08
36664;BME280;53333;51.976;20.144;2023-03-13T13:38:20;98878.41;;;11.75;60.91
36664;BME280;53333;51.976;20.144;2023-03-13T13:41:00;98886.75;;;11.71;61.38
36664;BME280;53333;51.976;20.144;2023-03-13T13:43:35;98882.28;;;11.71;61.41
36664;BME280;53333;51.976;20.144;2023-03-13T13:46:19;98868.81;;;11.73;61.46
36664;BME280;53333;51.976;20.144;2023-03-13T13:49:10;98874.16;;;11.73;61.25
36664;BME280;53333;51.976;20.144;2023-03-13T13:52:17;98860.66;;;11.74;61.23
36664;BME280;53333;51.976;20.144;2023-03-13T13:54:53;98863.56;;;11.71;61.06
36664;BME280;53333;51.976;20.144;2023-03-13T13:57:31;98865.25;;;11.72;60.99
36664;BME280;53333;51.976;20.144;2023-03-13T14:00:17;98859.78;;;11.74;60.76
36664;BME280;53333;51.976;20.144;2023-03-13T14:02:52;98851.03;;;11.72;60.52
36664;BME280;53333;51.976;20.144;2023-03-13T14:05:27;98859.91;;;11.72;60.52
36664;BME280;53333;51.976;20.144;2023-03-13T14:08:03;98841.28;;;11.71;60.38
36664;BME280;53333;51.976;20.144;2023-03-13T14:10:40;98836.81;;;11.71;60.17